Time;durP1;ratioP1;P1;durP2;ratioP2;P2;SDS_P1;SDS_P2;PMS_P1;PMS_P2;Temp;Humidity;BMP_temperature;BMP_pressure;BME280_temperature;BME280_humidity;BME280_pressure;Samples;Min_cycle;Max_cycle;Signal;HPM_P1;HPM_P2
2024/03/04 00:01:58;;;;;;;21.40;17.93;;;;;;;8.94;86.14;99461.44;5060459;28;20210;-79
2024/03/04 00:04:24;;;;;;;29.23;22.37;;;;;;;8.92;86.63;99458.88;5056277;28;20198;-79
2024/03/04 00:06:50;;;;;;;20.27;18.10;;;;;;;8.91;86.53;99458.91;5056250;28;20216;-79
2024/03/04 00:09:17;;;;;;;39.60;26.57;;;;;;;8.86;86.60;99456.44;5056335;28;20265;-79
2024/03/04 00:11:44;;;;;;;24.07;20.40;;;;;;;8.89;86.54;99458.94;5056570;28;20207;-79
2024/03/04 00:14:11;;;;;;;22.30;19.83;;;;;;;8.90;86.02;99465.00;5062733;28;20259;-79
2024/03/04 00:16:40;;;;;;;24.80;21.63;;;;;;;8.96;85.59;99472.66;5056871;28;20242;-79
2024/03/04 00:19:08;;;;;;;34.50;26.20;;;;;;;8.91;85.88;99475.38;5060289;28;20264;-79
2024/03/04 00:21:34;;;;;;;21.40;19.10;;;;;;;8.92;85.29;99476.25;5060308;28;20213;-79
2024/03/04 00:24:01;;;;;;;21.30;19.13;;;;;;;8.93;84.81;99490.94;5059594;28;20253;-79
2024/03/04 00:26:27;;;;;;;20.07;17.33;;;;;;;8.83;84.44;99507.72;5059229;28;20226;-79
2024/03/04 00:28:53;;;;;;;18.97;17.03;;;;;;;8.85;84.09;99516.31;5068559;28;20205;-78
2024/03/04 00:31:20;;;;;;;17.90;16.20;;;;;;;8.84;83.61;99528.50;5084558;28;20749;-79
2024/03/04 00:33:46;;;;;;;17.97;16.07;;;;;;;8.84;83.51;99536.31;5079664;28;20225;-79
2024/03/04 00:36:14;;;;;;;18.17;16.33;;;;;;;8.82;83.57;99540.69;5079271;28;20223;-77
2024/03/04 00:38:40;;;;;;;17.57;16.00;;;;;;;8.84;82.93;99551.91;5078775;28;20258;-79
2024/03/04 00:41:07;;;;;;;18.13;16.40;;;;;;;8.86;83.07;99568.34;5079605;28;20554;-79
2024/03/04 00:43:33;;;;;;;18.27;16.57;;;;;;;8.86;82.54;99570.06;5080548;28;20232;-79
2024/03/04 00:46:00;;;;;;;18.47;16.77;;;;;;;8.87;82.51;99580.44;5084759;28;20905;-78
2024/03/04 00:48:27;;;;;;;16.87;15.40;;;;;;;8.80;82.30;99591.94;5086628;28;20214;-79
2024/03/04 00:50:56;;;;;;;18.90;16.90;;;;;;;8.83;82.19;99596.19;5089590;28;20212;-79
2024/03/04 00:53:24;;;;;;;18.77;16.97;;;;;;;8.82;81.80;99605.75;5087828;28;20223;-78
2024/03/04 00:55:50;;;;;;;18.93;16.93;;;;;;;8.83;81.78;99611.81;5090173;28;20233;-78
2024/03/04 00:58:17;;;;;;;17.63;15.83;;;;;;;8.75;81.70;99618.03;5081886;28;20217;-78
2024/03/04 01:00:44;;;;;;;20.57;16.87;;;;;;;8.77;81.73;99614.56;5086481;28;20393;-78
2024/03/04 01:03:10;;;;;;;19.17;17.17;;;;;;;8.75;81.87;99617.19;5071801;28;20236;-79
2024/03/04 01:05:36;;;;;;;18.67;16.77;;;;;;;8.75;82.00;99614.59;5062820;28;20797;-79
2024/03/04 01:08:03;;;;;;;18.97;17.10;;;;;;;8.75;81.91;99619.78;5059428;28;20240;-79
2024/03/04 01:10:32;;;;;;;17.73;16.10;;;;;;;8.74;81.59;99621.56;5060509;28;20206;-79
2024/03/04 01:12:59;;;;;;;16.50;15.03;;;;;;;8.72;81.18;99635.47;5059196;28;20261;-78
2024/03/04 01:15:26;;;;;;;16.77;15.17;;;;;;;8.68;80.86;99649.44;5059188;28;20282;-79
2024/03/04 01:17:52;;;;;;;17.40;15.83;;;;;;;8.68;80.00;99665.06;5058198;28;20292;-80
2024/03/04 01:20:20;;;;;;;17.00;15.23;;;;;;;8.66;80.32;99667.72;5058058;28;20707;-80
2024/03/04 01:22:46;;;;;;;17.47;15.60;;;;;;;8.63;79.90;99674.72;5058250;28;20637;-80
2024/03/04 01:25:13;;;;;;;16.60;14.90;;;;;;;8.59;79.99;99676.53;5057209;28;20226;-79
2024/03/04 01:27:41;;;;;;;16.87;15.37;;;;;;;8.53;80.28;99677.53;5061311;28;20279;-78
2024/03/04 01:30:10;;;;;;;16.23;14.53;;;;;;;8.51;79.82;99679.31;5068968;28;20236;-79
2024/03/04 01:32:36;;;;;;;17.80;16.20;;;;;;;8.43;80.48;99689.03;5078652;28;20217;-78
2024/03/04 01:35:07;;;;;;;17.90;16.20;;;;;;;8.41;80.59;99674.34;5078306;28;20787;-79
2024/03/04 01:37:33;;;;;;;18.43;16.60;;;;;;;8.42;81.07;99676.06;5078630;28;20245;-77
2024/03/04 01:40:00;;;;;;;18.53;16.87;;;;;;;8.39;80.89;99669.16;5078379;28;20286;-79
2024/03/04 01:42:26;;;;;;;17.43;15.73;;;;;;;8.38;81.08;99667.44;5079106;28;20779;-79
2024/03/04 01:44:54;;;;;;;16.33;14.83;;;;;;;8.36;81.14;99666.63;5078559;28;20218;-79
2024/03/04 01:47:21;;;;;;;17.53;15.77;;;;;;;8.31;80.84;99673.69;5078790;28;20205;-79
2024/03/04 01:49:48;;;;;;;17.30;15.60;;;;;;;8.32;80.96;99676.25;5079819;28;20211;-79
2024/03/04 01:52:16;;;;;;;19.40;15.57;;;;;;;8.29;80.86;99678.91;5080195;28;20346;-79
2024/03/04 01:54:46;;;;;;;17.20;15.60;;;;;;;8.28;81.38;99673.75;5078407;28;20282;-79
2024/03/04 01:57:17;;;;;;;17.43;15.73;;;;;;;8.20;81.62;99676.50;5078866;28;20227;-79
2024/03/04 01:59:46;;;;;;;15.33;13.83;;;;;;;8.16;81.98;99667.91;5063461;28;20200;-79
2024/03/04 02:02:14;;;;;;;17.03;14.47;;;;;;;8.16;81.54;99664.47;5079253;28;20209;-79
2024/03/04 02:04:41;;;;;;;15.33;13.73;;;;;;;8.14;80.86;99672.28;5079713;28;20222;-79
2024/03/04 02:07:08;;;;;;;16.60;15.13;;;;;;;8.06;80.92;99684.59;5079538;28;20760;-79
2024/03/04 02:09:36;;;;;;;16.33;14.63;;;;;;;8.14;81.39;99677.47;5079601;28;20614;-79
2024/03/04 02:12:03;;;;;;;17.17;15.57;;;;;;;8.12;81.87;99678.41;5079108;28;20556;-79
2024/03/04 02:14:30;;;;;;;17.60;15.77;;;;;;;8.12;82.22;99665.41;5079480;28;20307;-79
2024/03/04 02:16:56;;;;;;;17.23;15.53;;;;;;;8.08;82.00;99656.81;5079379;28;20225;-79
2024/03/04 02:19:24;;;;;;;18.00;14.30;;;;;;;8.08;81.78;99662.03;5078667;28;20227;-79
2024/03/04 02:21:55;;;;;;;15.97;14.47;;;;;;;8.08;81.51;99663.78;5078845;28;20266;-79
2024/03/04 02:24:23;;;;;;;14.63;13.10;;;;;;;8.04;81.25;99688.97;5078947;28;20201;-79
2024/03/04 02:26:50;;;;;;;15.07;13.67;;;;;;;8.06;81.08;99699.34;5078807;28;20228;-78
2024/03/04 02:29:17;;;;;;;14.33;12.83;;;;;;;8.05;80.84;99701.09;5076509;28;20240;-79
2024/03/04 02:31:43;;;;;;;16.93;15.20;;;;;;;7.98;81.01;99714.22;5038442;28;20588;-79
2024/03/04 02:34:12;;;;;;;18.83;16.63;;;;;;;7.67;84.01;99683.66;5038774;28;20222;-79
2024/03/04 02:36:40;;;;;;;17.53;15.70;;;;;;;7.58;85.36;99618.91;5038807;28;20209;-79
2024/03/04 02:39:10;;;;;;;17.53;15.83;;;;;;;7.62;85.33;99587.66;5038932;28;20217;-79
2024/03/04 02:41:38;;;;;;;18.53;16.83;;;;;;;7.64;85.34;99585.03;5037760;28;20288;-79
2024/03/04 02:44:04;;;;;;;18.47;16.63;;;;;;;7.49;86.04;99579.25;5038842;28;20264;-79
2024/03/04 02:46:31;;;;;;;22.27;18.77;;;;;;;7.40;89.33;99521.47;5038787;28;20329;-79
2024/03/04 02:48:58;;;;;;;20.63;18.53;;;;;;;7.31;90.89;99493.94;5038445;28;20206;-79
2024/03/04 02:51:24;;;;;;;19.53;17.63;;;;;;;7.40;90.76;99472.16;5038460;28;20218;-79
2024/03/04 02:53:50;;;;;;;21.67;18.40;;;;;;;7.44;89.79;99479.81;5039070;28;20709;-79
2024/03/04 02:56:17;;;;;;;19.47;17.60;;;;;;;7.24;90.60;99458.63;5038973;28;20226;-78
2024/03/04 02:58:44;;;;;;;19.40;17.40;;;;;;;7.06;89.94;99473.69;5062955;28;20216;-79
2024/03/04 03:01:10;;;;;;;18.90;16.90;;;;;;;7.18;90.42;99475.19;5078691;28;20205;-79
2024/03/04 03:03:37;;;;;;;18.53;16.20;;;;;;;7.26;89.60;99482.81;5078593;28;20222;-79
2024/03/04 03:06:05;;;;;;;17.50;15.90;;;;;;;7.35;87.80;99501.66;5077971;28;20221;-79
2024/03/04 03:08:32;;;;;;;17.50;15.80;;;;;;;7.37;87.26;99522.38;5078475;28;20258;-79
2024/03/04 03:10:58;;;;;;;18.00;16.17;;;;;;;7.43;86.67;99539.56;5077661;28;20208;-79
2024/03/04 03:13:24;;;;;;;17.90;16.17;;;;;;;7.48;85.81;99555.91;5076796;28;20221;-80
2024/03/04 03:15:52;;;;;;;16.63;14.93;;;;;;;7.52;84.75;99580.94;5078509;28;20229;-80
2024/03/04 03:18:18;;;;;;;16.20;14.60;;;;;;;7.52;84.39;99591.31;5077916;28;20204;-80
2024/03/04 03:20:45;;;;;;;16.53;14.93;;;;;;;7.50;84.22;99617.31;5077921;28;20270;-80
2024/03/04 03:23:12;;;;;;;15.77;14.27;;;;;;;7.51;84.38;99628.53;5074052;28;20201;-78
2024/03/04 03:25:39;;;;;;;15.97;14.37;;;;;;;7.50;83.94;99639.84;5075913;28;20719;-77
2024/03/04 03:28:05;;;;;;;18.53;16.73;;;;;;;7.49;83.61;99648.50;5076217;28;20215;-79
2024/03/04 03:30:32;;;;;;;17.53;15.73;;;;;;;7.54;84.02;99649.28;5077464;28;20216;-78
2024/03/04 03:32:59;;;;;;;19.83;16.77;;;;;;;7.55;84.66;99651.84;5076956;28;20205;-79
2024/03/04 03:35:26;;;;;;;17.93;16.33;;;;;;;7.60;85.11;99643.97;5076158;28;20432;-80
2024/03/04 03:37:52;;;;;;;18.87;17.07;;;;;;;7.48;86.68;99631.22;5077450;28;20208;-80
2024/03/04 03:40:19;;;;;;;18.77;16.77;;;;;;;7.44;87.62;99596.66;5078534;28;20237;-79
2024/03/04 03:42:45;;;;;;;19.77;16.33;;;;;;;7.53;87.19;99595.59;5078605;28;20605;-80
2024/03/04 03:45:11;;;;;;;18.60;16.67;;;;;;;7.55;86.93;99599.91;5078278;28;20584;-79
2024/03/04 03:47:38;;;;;;;21.70;19.30;;;;;;;6.95;91.59;99574.22;5077378;28;20197;-79
2024/03/04 03:50:06;;;;;;;27.30;21.47;;;;;;;6.14;98.82;99465.88;5077328;28;20234;-79
2024/03/04 03:52:34;;;;;;;25.90;22.23;;;;;;;6.31;99.24;99387.84;5080648;28;20255;-79
2024/03/04 03:55:01;;;;;;;25.17;22.17;;;;;;;6.32;99.80;99360.16;5080540;28;20228;-79
2024/03/04 03:57:27;;;;;;;25.93;21.40;;;;;;;6.50;98.40;99358.97;5080290;28;20728;-79
2024/03/04 03:59:53;;;;;;;25.33;21.27;;;;;;;6.65;97.64;99355.22;5081011;28;20205;-79
2024/03/04 04:02:20;;;;;;;24.80;20.53;;;;;;;6.68;95.25;99381.94;5081860;28;20251;-78
2024/03/04 04:04:46;;;;;;;26.43;20.87;;;;;;;6.62;94.39;99413.19;5081428;28;20249;-79
2024/03/04 04:07:14;;;;;;;28.43;20.83;;;;;;;6.62;92.44;99444.31;5081936;28;20303;-79
2024/03/04 04:09:40;;;;;;;23.03;20.53;;;;;;;6.72;92.27;99460.53;5081836;28;20201;-78
2024/03/04 04:12:07;;;;;;;26.57;21.50;;;;;;;6.75;91.31;99481.22;5081400;28;20209;-79
2024/03/04 04:14:34;;;;;;;23.40;20.93;;;;;;;6.85;91.54;99493.13;5081473;28;20224;-79
2024/03/04 04:17:01;;;;;;;26.17;21.10;;;;;;;6.82;91.22;99505.28;5081078;28;20231;-79
2024/03/04 04:19:27;;;;;;;28.67;22.30;;;;;;;6.68;91.91;99503.81;5081461;28;20628;-79
2024/03/04 04:21:53;;;;;;;26.50;21.80;;;;;;;6.70;92.52;99493.41;5082201;28;20209;-79
2024/03/04 04:24:21;;;;;;;30.00;21.87;;;;;;;6.74;92.49;99489.91;5081457;28;20201;-79
2024/03/04 04:26:47;;;;;;;26.77;20.90;;;;;;;6.68;92.85;99506.41;5081017;28;20204;-78
2024/03/04 04:29:14;;;;;;;23.93;19.90;;;;;;;6.79;92.08;99503.63;5072801;28;20206;-78
2024/03/04 04:31:40;;;;;;;24.10;20.00;;;;;;;6.89;91.37;99507.75;5079780;28;20201;-78
2024/03/04 04:34:07;;;;;;;21.23;18.97;;;;;;;6.95;90.54;99533.56;5081094;28;20231;-79
2024/03/04 04:36:33;;;;;;;23.10;20.73;;;;;;;7.00;89.65;99561.16;5081173;28;20227;-79
2024/03/04 04:39:00;;;;;;;22.90;20.37;;;;;;;6.94;90.34;99573.38;5080806;28;20229;-79
2024/03/04 04:41:28;;;;;;;25.73;21.60;;;;;;;6.59;91.27;99583.50;5081153;28;20248;-79
2024/03/04 04:43:54;;;;;;;28.43;22.27;;;;;;;6.41;93.50;99550.97;5081387;28;20250;-79
2024/03/04 04:46:21;;;;;;;28.63;23.00;;;;;;;6.41;95.02;99519.88;5080569;28;20228;-79
2024/03/04 04:48:48;;;;;;;23.40;20.37;;;;;;;6.44;94.99;99496.47;5081001;28;20215;-79
2024/03/04 04:51:14;;;;;;;28.67;20.70;;;;;;;6.52;93.39;99490.28;5081391;28;20201;-79
2024/03/04 04:53:41;;;;;;;26.80;20.37;;;;;;;6.56;92.85;99510.09;5081746;28;20259;-79
2024/03/04 04:56:07;;;;;;;21.03;18.80;;;;;;;6.62;92.45;99522.09;5079811;28;20251;-79
2024/03/04 04:58:35;;;;;;;25.30;20.40;;;;;;;6.70;91.36;99547.84;5077577;28;20212;-79
2024/03/04 05:01:01;;;;;;;25.73;20.30;;;;;;;6.34;91.81;99551.06;5067871;28;20274;-79
2024/03/04 05:03:27;;;;;;;26.07;20.93;;;;;;;6.22;94.74;99530.50;5060390;28;20668;-79
2024/03/04 05:05:54;;;;;;;31.00;22.10;;;;;;;6.34;94.61;99507.00;5059978;28;20219;-78
2024/03/04 05:08:20;;;;;;;27.57;21.47;;;;;;;6.39;95.15;99506.06;5059897;28;20263;-79
2024/03/04 05:10:46;;;;;;;27.00;21.90;;;;;;;6.52;95.38;99503.25;5061139;28;20619;-79
2024/03/04 05:13:13;;;;;;;29.80;22.73;;;;;;;6.64;93.89;99515.13;5060817;28;20224;-79
2024/03/04 05:15:40;;;;;;;28.70;23.00;;;;;;;6.65;93.39;99529.78;5060322;28;20240;-79
2024/03/04 05:18:09;;;;;;;29.17;22.87;;;;;;;6.63;95.08;99520.34;5060502;28;20754;-79
2024/03/04 05:20:35;;;;;;;30.47;23.60;;;;;;;6.72;93.79;99527.97;5060517;28;20219;-79
2024/03/04 05:23:02;;;;;;;27.87;22.67;;;;;;;6.66;93.66;99547.09;5060970;28;20339;-79
2024/03/04 05:25:28;;;;;;;25.30;21.70;;;;;;;6.75;92.88;99561.63;5059970;28;20227;-79
2024/03/04 05:27:54;;;;;;;27.90;21.93;;;;;;;6.65;91.05;99573.88;5057996;28;20270;-80
2024/03/04 05:30:21;;;;;;;28.47;21.77;;;;;;;6.73;92.06;99579.78;5076603;28;20205;-78
2024/03/04 05:32:49;;;;;;;24.00;19.70;;;;;;;6.75;91.02;99593.59;5077147;28;20544;-79
2024/03/04 05:35:15;;;;;;;24.73;20.50;;;;;;;6.75;89.94;99614.34;5080232;28;20238;-80
2024/03/04 05:37:42;;;;;;;21.30;18.87;;;;;;;6.73;89.59;99636.84;5076889;28;20206;-80
2024/03/04 05:40:10;;;;;;;21.23;19.10;;;;;;;6.76;87.96;99657.56;5079931;28;20268;-80
2024/03/04 05:42:39;;;;;;;22.63;19.87;;;;;;;6.83;88.14;99670.44;5079563;28;20291;-80
2024/03/04 05:45:07;;;;;;;30.23;21.33;;;;;;;6.85;88.33;99686.81;5078479;28;20738;-78
2024/03/04 05:47:33;;;;;;;26.23;21.63;;;;;;;6.83;88.04;99697.22;5078723;28;20286;-80
2024/03/04 05:50:02;;;;;;;36.63;22.93;;;;;;;6.86;87.94;99706.72;5079294;28;20208;-79
2024/03/04 05:52:28;;;;;;;24.37;20.63;;;;;;;6.82;87.90;99720.56;5079074;28;20212;-79
2024/03/04 05:54:54;;;;;;;24.20;20.37;;;;;;;7.07;86.32;99734.03;5079187;28;20237;-79
2024/03/04 05:57:21;;;;;;;22.00;19.63;;;;;;;6.92;86.74;99758.50;5079101;28;20204;-80
2024/03/04 05:59:47;;;;;;;26.77;21.37;;;;;;;7.05;85.68;99762.59;5077235;28;20585;-81
2024/03/04 06:02:14;;;;;;;24.73;20.43;;;;;;;6.88;87.58;99765.47;5060268;28;20201;-81
2024/03/04 06:04:40;;;;;;;25.20;21.23;;;;;;;6.91;87.99;99754.16;5059212;28;20267;-80
2024/03/04 06:07:08;;;;;;;27.20;22.10;;;;;;;6.99;88.84;99738.50;5059569;28;20686;-80
2024/03/04 06:09:34;;;;;;;32.83;21.93;;;;;;;7.18;88.16;99731.28;5058267;28;20206;-81
2024/03/04 06:12:01;;;;;;;38.80;24.77;;;;;;;7.28;88.23;99735.44;5042758;28;20477;-82
2024/03/04 06:14:28;;;;;;;42.93;24.87;;;;;;;7.33;88.49;99736.19;5038932;28;20227;-81
2024/03/04 06:16:54;;;;;;;46.53;25.47;;;;;;;7.35;88.13;99735.31;5039626;28;20263;-82
2024/03/04 06:19:20;;;;;;;36.73;24.00;;;;;;;7.40;89.17;99737.81;5039700;28;20206;-81
2024/03/04 06:21:47;;;;;;;51.43;25.80;;;;;;;7.50;88.56;99738.50;5053457;28;20249;-81
2024/03/04 06:24:14;;;;;;;63.10;28.83;;;;;;;7.50;88.97;99744.56;5060160;28;20206;-80
2024/03/04 06:26:42;;;;;;;67.30;30.20;;;;;;;7.52;89.81;99729.81;5059117;28;20237;-80
2024/03/04 06:29:09;;;;;;;111.87;29.17;;;;;;;7.33;93.07;99698.13;5072106;28;20209;-82
2024/03/04 06:31:35;;;;;;;62.77;30.80;;;;;;;7.40;93.47;99667.72;5064228;28;20206;-78
2024/03/04 06:34:02;;;;;;;75.20;29.90;;;;;;;7.47;94.06;99652.88;5043404;28;20707;-81
2024/03/04 06:36:28;;;;;;;51.93;29.77;;;;;;;7.53;93.78;99639.75;5038319;28;20231;-81
2024/03/04 06:38:54;;;;;;;46.10;26.90;;;;;;;7.52;94.12;99632.88;5038671;28;20206;-81
2024/03/04 06:41:22;;;;;;;42.23;25.70;;;;;;;7.52;93.87;99619.88;5048998;28;20207;-82
2024/03/04 06:43:48;;;;;;;63.10;27.43;;;;;;;7.41;94.57;99627.00;5059478;28;20206;-81
2024/03/04 06:46:15;;;;;;;66.77;29.20;;;;;;;7.34;94.72;99613.31;5057629;28;20232;-81
2024/03/04 06:48:41;;;;;;;46.13;28.17;;;;;;;7.23;94.63;99602.25;5059363;28;20623;-81
2024/03/04 06:51:07;;;;;;;92.57;28.07;;;;;;;7.02;96.67;99594.00;5058016;28;20240;-81
2024/03/04 06:53:34;;;;;;;69.07;26.00;;;;;;;6.56;98.09;99572.31;5058567;28;20210;-82
2024/03/04 06:56:01;;;;;;;69.70;28.80;;;;;;;6.23;100.00;99524.47;5040502;28;20242;-81
2024/03/04 06:58:28;;;;;;;78.83;27.70;;;;;;;5.99;100.00;99486.84;5054070;28;20340;-80
2024/03/04 07:00:55;;;;;;;73.87;27.53;;;;;;;5.82;100.00;99444.78;5077865;28;20206;-80
2024/03/04 07:03:21;;;;;;;95.93;29.33;;;;;;;6.12;100.00;99422.72;5077716;28;20292;-81
2024/03/04 07:05:48;;;;;;;35.17;26.70;;;;;;;6.30;100.00;99421.53;5078313;28;20302;-81
2024/03/04 07:08:14;;;;;;;39.93;26.47;;;;;;;6.44;100.00;99429.94;5077926;28;20244;-82
2024/03/04 07:10:40;;;;;;;33.43;24.87;;;;;;;6.60;100.00;99446.06;5077946;28;20209;-81
2024/03/04 07:13:07;;;;;;;36.97;24.53;;;;;;;6.63;100.00;99474.53;5076347;28;20290;-81
2024/03/04 07:15:34;;;;;;;38.67;25.00;;;;;;;6.63;100.00;99499.59;5078514;28;20226;-81
2024/03/04 07:18:01;;;;;;;53.53;26.53;;;;;;;6.54;100.00;99509.25;5077840;28;20215;-80
2024/03/04 07:20:27;;;;;;;47.80;25.07;;;;;;;6.59;100.00;99511.75;5078289;28;20212;-82
2024/03/04 07:22:53;;;;;;;86.77;26.93;;;;;;;6.34;100.00;99507.00;5077463;28;20204;-84
2024/03/04 07:25:20;;;;;;;73.40;27.47;;;;;;;5.93;100.00;99495.53;5077926;28;20221;-81
2024/03/04 07:27:46;;;;;;;54.93;28.87;;;;;;;5.83;100.00;99460.28;5072270;28;20691;-80
2024/03/04 07:30:13;;;;;;;71.70;29.93;;;;;;;5.86;100.00;99439.50;5077652;28;20206;-82
2024/03/04 07:32:41;;;;;;;41.40;28.77;;;;;;;6.12;100.00;99438.25;5076667;28;20659;-82
2024/03/04 07:35:08;;;;;;;49.20;24.23;;;;;;;5.76;100.00;99462.09;5077330;28;20229;-81
2024/03/04 07:37:34;;;;;;;33.53;25.07;;;;;;;6.03;100.00;99457.41;5075960;28;20205;-81
2024/03/04 07:40:01;;;;;;;57.63;24.90;;;;;;;5.80;100.00;99472.44;5076743;28;20215;-81
2024/03/04 07:42:27;;;;;;;49.30;24.63;;;;;;;5.76;100.00;99458.66;5075640;28;20668;-80
2024/03/04 07:44:53;;;;;;;59.57;27.07;;;;;;;5.81;100.00;99459.47;5075042;28;20254;-81
2024/03/04 07:47:20;;;;;;;77.70;26.20;;;;;;;5.20;100.00;99450.00;5075097;28;20764;-80
2024/03/04 07:49:47;;;;;;;50.63;26.13;;;;;;;5.06;100.00;99417.38;5074883;28;20205;-80
2024/03/04 07:52:14;;;;;;;80.53;28.80;;;;;;;5.04;100.00;99385.50;5076417;28;20599;-81
2024/03/04 07:54:40;;;;;;;83.17;31.10;;;;;;;5.23;100.00;99373.16;5075536;28;20238;-80
2024/03/04 07:57:07;;;;;;;87.73;30.30;;;;;;;5.25;100.00;99373.16;5075689;28;20208;-80
2024/03/04 07:59:33;;;;;;;87.47;30.90;;;;;;;5.28;100.00;99353.28;5071929;28;20338;-81
2024/03/04 08:02:03;;;;;;;79.23;31.43;;;;;;;5.25;100.00;99361.09;5075322;28;20205;-81
2024/03/04 08:04:29;;;;;;;85.47;32.30;;;;;;;5.53;100.00;99358.94;5075626;28;20878;-80
2024/03/04 08:06:57;;;;;;;67.13;30.20;;;;;;;5.28;100.00;99375.72;5074895;28;20212;-81
2024/03/04 08:09:23;;;;;;;80.80;32.07;;;;;;;5.31;100.00;99376.53;5074859;28;20216;-83
2024/03/04 08:11:50;;;;;;;66.97;30.37;;;;;;;5.27;100.00;99374.84;5076046;28;20202;-81
2024/03/04 08:14:16;;;;;;;90.80;32.20;;;;;;;5.32;100.00;99377.38;5075144;28;20247;-80
2024/03/04 08:16:43;;;;;;;86.23;33.37;;;;;;;5.21;100.00;99369.75;5074753;28;20311;-81
2024/03/04 08:19:11;;;;;;;60.27;32.20;;;;;;;5.48;100.00;99381.44;5074448;28;20201;-80
2024/03/04 08:21:37;;;;;;;85.67;35.33;;;;;;;5.44;100.00;99391.84;5074638;28;20234;-80
2024/03/04 08:24:05;;;;;;;118.23;34.77;;;;;;;5.44;100.00;99397.88;5075489;28;20228;-81
2024/03/04 08:26:32;;;;;;;109.10;35.23;;;;;;;5.67;100.00;99392.38;5075261;28;20226;-80
2024/03/04 08:28:58;;;;;;;94.67;35.23;;;;;;;5.69;100.00;99408.72;5069746;28;20230;-81
2024/03/04 08:31:25;;;;;;;83.57;36.13;;;;;;;5.93;100.00;99406.63;5061156;28;20264;-81
2024/03/04 08:33:51;;;;;;;62.47;34.50;;;;;;;6.26;100.00;99420.75;5056484;28;20221;-81
2024/03/04 08:36:17;;;;;;;106.37;37.10;;;;;;;6.08;100.00;99432.28;5056031;28;20230;-82
2024/03/04 08:38:44;;;;;;;125.97;36.57;;;;;;;6.30;100.00;99450.94;5056768;28;20202;-79
2024/03/04 08:41:11;;;;;;;77.70;34.53;;;;;;;6.57;100.00;99453.88;5058701;28;20206;-82
2024/03/04 08:43:38;;;;;;;109.40;34.63;;;;;;;6.36;100.00;99474.16;5058440;28;20206;-77
2024/03/04 08:46:05;;;;;;;164.63;32.07;;;;;;;6.01;100.00;99503.22;5058793;28;20221;-80
2024/03/04 08:48:31;;;;;;;132.83;34.67;;;;;;;6.30;100.00;99497.56;5057388;28;20243;-80
2024/03/04 08:50:57;;;;;;;49.90;32.23;;;;;;;6.53;100.00;99499.75;4367020;28;10000762;-80
2024/03/04 08:53:24;;;;;;;60.80;33.27;;;;;;;6.71;100.00;99508.94;5075091;28;20637;-83
2024/03/04 08:55:50;;;;;;;49.30;30.43;;;;;;;6.87;100.00;99519.03;5075646;28;20671;-81
2024/03/04 08:58:18;;;;;;;151.27;32.77;;;;;;;6.86;100.00;99531.16;5070550;28;20254;-82
2024/03/04 09:00:44;;;;;;;61.73;29.83;;;;;;;7.07;100.00;99544.59;5075060;28;20205;-82
2024/03/04 09:03:11;;;;;;;71.47;30.07;;;;;;;7.20;100.00;99543.50;5075726;28;20217;-80
2024/03/04 09:05:41;;;;;;;35.07;27.80;;;;;;;7.42;100.00;99561.25;5075253;28;20637;-84
2024/03/04 09:08:08;;;;;;;28.67;25.70;;;;;;;7.59;100.00;99587.72;5074785;28;20212;-82
2024/03/04 09:10:34;;;;;;;31.70;25.87;;;;;;;7.75;100.00;99620.28;5075056;28;20209;-80
2024/03/04 09:13:01;;;;;;;26.40;23.70;;;;;;;7.83;100.00;99647.81;5075409;28;20271;-82
2024/03/04 09:15:29;;;;;;;30.43;23.83;;;;;;;8.14;100.00;99680.06;5075106;28;20323;-81
2024/03/04 09:17:55;;;;;;;30.33;24.43;;;;;;;8.05;100.00;99715.84;5074963;28;20538;-82
2024/03/04 09:20:22;;;;;;;29.80;24.90;;;;;;;8.18;100.00;99732.88;5076154;28;20297;-82
2024/03/04 09:22:48;;;;;;;25.57;22.97;;;;;;;8.24;100.00;99732.75;5075769;28;20748;-83
2024/03/04 09:25:15;;;;;;;27.13;24.17;;;;;;;8.34;100.00;99757.69;5078650;28;20226;-83
2024/03/04 09:27:43;;;;;;;26.07;22.53;;;;;;;8.46;99.78;99794.75;5071765;28;20236;-79
2024/03/04 09:30:10;;;;;;;24.90;22.27;;;;;;;8.54;98.02;99816.25;5065724;28;20250;-84
2024/03/04 09:32:38;;;;;;;26.30;23.67;;;;;;;8.71;98.23;99831.50;5074970;28;20209;-81
2024/03/04 09:35:05;;;;;;;28.80;23.17;;;;;;;8.86;97.22;99849.41;5074064;28;20726;-81
2024/03/04 09:37:31;;;;;;;28.27;24.23;;;;;;;9.01;96.67;99873.38;5074709;28;20209;-81
2024/03/04 09:39:58;;;;;;;32.60;25.40;;;;;;;8.68;96.97;99889.69;5074633;28;20204;-80
2024/03/04 09:42:29;;;;;;;39.17;25.57;;;;;;;8.40;97.84;99880.66;5074620;28;20721;-81
2024/03/04 09:44:56;;;;;;;35.13;25.30;;;;;;;8.53;98.64;99863.97;5074571;28;20347;-83
2024/03/04 09:47:22;;;;;;;31.20;25.40;;;;;;;8.58;98.73;99858.66;5073601;28;20266;-80
2024/03/04 09:49:52;;;;;;;32.57;25.40;;;;;;;8.65;97.99;99868.91;5068421;28;20264;-83
2024/03/04 09:52:20;;;;;;;33.70;25.47;;;;;;;8.26;99.74;99870.50;5053190;28;20217;-79
2024/03/04 09:54:47;;;;;;;43.60;27.90;;;;;;;8.06;100.00;99816.28;5053829;28;20230;-83
2024/03/04 09:57:14;;;;;;;62.33;29.93;;;;;;;7.79;100.00;99786.47;5053572;28;20238;-81
2024/03/04 09:59:40;;;;;;;102.60;30.50;;;;;;;7.26;100.00;99716.44;5068682;28;20890;-80
2024/03/04 10:02:11;;;;;;;43.83;29.87;;;;;;;7.74;100.00;99672.25;5074820;28;20216;-80
2024/03/04 10:04:39;;;;;;;72.30;31.37;;;;;;;7.81;100.00;99652.19;5074381;28;20290;-81
2024/03/04 10:07:07;;;;;;;52.80;31.00;;;;;;;7.74;100.00;99643.69;5074654;28;20216;-80
2024/03/04 10:09:34;;;;;;;54.37;32.87;;;;;;;7.60;100.00;99635.31;5073306;28;20259;-81
2024/03/04 10:12:02;;;;;;;62.07;34.60;;;;;;;7.81;100.00;99605.44;5074398;28;20272;-80
2024/03/04 10:14:28;;;;;;;67.83;34.83;;;;;;;8.02;100.00;99594.59;5073727;28;20205;-81
2024/03/04 10:16:55;;;;;;;55.70;33.50;;;;;;;7.85;100.00;99591.50;5074022;28;20274;-81
2024/03/04 10:19:21;;;;;;;57.57;34.63;;;;;;;7.91;100.00;99596.59;5073775;28;20213;-81
2024/03/04 10:21:48;;;;;;;57.10;33.47;;;;;;;7.98;100.00;99611.13;5073999;28;20243;-80
2024/03/04 10:24:16;;;;;;;59.03;34.83;;;;;;;8.31;100.00;99599.13;5073622;28;20211;-81
2024/03/04 10:26:44;;;;;;;59.87;35.60;;;;;;;8.50;100.00;99623.00;5073531;28;20212;-81
2024/03/04 10:29:12;;;;;;;50.40;33.90;;;;;;;8.46;100.00;99662.97;5067692;28;20210;-80
2024/03/04 10:31:48;;;;;;;45.33;30.90;;;;;;;8.50;100.00;99685.44;5073928;28;20205;-80
2024/03/04 10:34:15;;;;;;;50.57;32.43;;;;;;;8.52;100.00;99687.97;5073867;28;20209;-80
2024/03/04 10:36:41;;;;;;;54.17;34.37;;;;;;;8.31;100.00;99684.09;5073912;28;20228;-81
2024/03/04 10:39:14;;;;;;;59.37;33.10;;;;;;;8.08;100.00;99666.38;5076420;28;20208;-81
2024/03/04 10:41:43;;;;;;;63.17;34.33;;;;;;;8.29;100.00;99657.25;5092264;28;20200;-81
2024/03/04 10:44:10;;;;;;;56.67;33.90;;;;;;;8.34;100.00;99650.19;5091041;28;20209;-80
2024/03/04 10:46:39;;;;;;;56.57;34.40;;;;;;;8.01;100.00;99637.06;5088430;28;20204;-80
2024/03/04 10:49:07;;;;;;;60.10;35.30;;;;;;;8.22;100.00;99616.69;5056145;28;20210;-81
2024/03/04 10:51:33;;;;;;;59.93;34.53;;;;;;;8.42;100.00;99609.28;5052826;28;20591;-81
2024/03/04 10:53:59;;;;;;;62.60;35.67;;;;;;;8.39;100.00;99624.09;5065089;28;20232;-81
2024/03/04 10:56:27;;;;;;;60.37;35.13;;;;;;;8.68;100.00;99644.25;5072435;28;20228;-81
2024/03/04 10:58:56;;;;;;;51.90;32.77;;;;;;;8.84;100.00;99662.94;5073614;28;20208;-80
2024/03/04 11:01:24;;;;;;;55.33;33.67;;;;;;;9.08;100.00;99695.34;5084673;28;20659;-80
2024/03/04 11:03:57;;;;;;;45.60;30.50;;;;;;;9.17;100.00;99728.09;5086004;28;20217;-81
2024/03/04 11:06:24;;;;;;;47.07;31.40;;;;;;;9.30;100.00;99755.56;5089070;28;20273;-81
2024/03/04 11:08:55;;;;;;;41.27;29.33;;;;;;;9.36;100.00;99783.19;5085906;28;20237;-81
2024/03/04 11:11:28;;;;;;;43.43;30.93;;;;;;;9.06;100.00;99801.25;5087869;28;20208;-85
2024/03/04 11:14:03;;;;;;;50.73;32.97;;;;;;;8.77;100.00;99760.28;5072752;28;20206;-82
2024/03/04 11:16:35;;;;;;;49.57;32.73;;;;;;;9.05;100.00;99750.91;5073028;28;20233;-82
2024/03/04 11:19:10;;;;;;;47.43;32.57;;;;;;;9.31;100.00;99765.91;5075244;28;20272;-84
2024/03/04 11:21:39;;;;;;;40.10;30.67;;;;;;;9.30;100.00;99789.41;5073332;28;20308;-81